• Join FlightAware (Why Join?)
  • Login
  • US Flag 
07:25PM EDT


 

Airport Tracker/Info


-or-


 

Live Flight TrackerFlight Track Log ✈ SWA2383 ✈ 08-Feb-2014 ✈ KOAK - KSEA

Flight Track Log - Related Links

Times and Time Zones

All times are in EST time to prevent confusion due to time zone crossing. See the SWA2383 flight status page for this flight to view local times or setup timezone preferences in your user account.

Time Position Orientation Groundspeed Altitude Reporting Facility
EST Latitude Longitude Course Direction KTS MPH feet Rate Location/Type
05:28PM 37.6667 -122.1500 122° Southeast 236 272 2,700  Level Northern Cal TRACON
05:29PM 37.6500 -122.0833 108° East 265 305 5,200 2,580 Climbing Northern Cal TRACON
05:31PM 37.7447 -122.0056 33° Northeast 302 348 9,300 2,700 Climbing Oakland Center
05:32PM 37.8472 -122.0172 355° North 312 359 12,100 2,760 Climbing Oakland Center
05:33PM 37.9389 -122.0269 355° North 330 380 15,000 2,700 Climbing Oakland Center
05:34PM 38.0344 -122.0361 356° North 340 391 17,600 2,160 Climbing Oakland Center
05:35PM 38.1336 -122.0450 356° North 355 409 19,500 1,740 Climbing Oakland Center
05:36PM 38.2378 -122.0550 356° North 372 428 21,200 1,740 Climbing Oakland Center
05:37PM 38.3478 -122.0644 356° North 391 450 23,100 1,800 Climbing Oakland Center
05:38PM 38.4581 -122.0764 355° North 396 456 24,900 1,800 Climbing Oakland Center
05:39PM 38.5708 -122.0875 356° North 404 465 26,800 1,380 Climbing Oakland Center
05:40PM 38.6917 -122.0978 356° North 410 472 27,800 1,080 Climbing Oakland Center
05:41PM 38.8117 -122.1108 355° North 425 489 29,100 1,320 Climbing Oakland Center
05:42PM 38.9322 -122.1208 356° North 430 495 30,500 1,380 Climbing Oakland Center
05:43PM 39.0514 -122.1336 355° North 429 494 32,000 1,380 Climbing Oakland Center
05:44PM 39.1692 -122.1456 356° North 425 489 33,400 1,260 Climbing Oakland Center
05:46PM 39.3719 -122.1664 355° North 417 480 35,400 960 Climbing Seattle Center
05:47PM 39.4878 -122.1764 356° North 417 480 36,000 180 Climbing Seattle Center
05:49PM 39.7189 -122.1992 356° North 420 483 36,000  Level Seattle Center
05:50PM 39.8861 -122.2153 356° North 431 496 36,000  Level Oakland Center
05:52PM 40.0772 -122.2331 356° North 436 502 36,000  Level Seattle Center
05:53PM 40.2178 -122.2417 357° North 446 513 36,000  Level Seattle Center
05:54PM 40.3386 -122.2494 357° North 444 511 36,000  Level Seattle Center
05:55PM 40.4608 -122.2583 357° North 443 510 36,000  Level Seattle Center
05:56PM 40.5847 -122.2664 357° North 446 513 36,000  Level Seattle Center
05:57PM 40.7081 -122.2736 357° North 445 512 36,000  Level Seattle Center
05:58PM 40.8325 -122.2803 358° North 447 514 36,000  Level Seattle Center
05:59PM 40.9561 -122.2883 357° North 446 513 36,000  Level Seattle Center
06:00PM 41.1294 -122.2947 358° North 448 516 36,000  Level Oakland Center
06:02PM 41.3275 -122.3089 357° North 446 513 36,000  Level Seattle Center
06:03PM 41.4650 -122.3183 357° North 449 517 36,000  Level Seattle Center
06:04PM 41.5906 -122.3239 358° North 450 518 36,000  Level Seattle Center
06:05PM 41.7142 -122.3319 357° North 446 513 36,000  Level Seattle Center
06:06PM 41.8419 -122.3392 358° North 454 522 36,000  Level Seattle Center
06:07PM 41.9675 -122.3481 357° North 446 513 36,000  Level Seattle Center
06:08PM 42.0947 -122.3539 358° North 454 522 36,000  Level Seattle Center
06:09PM 42.2214 -122.3622 357° North 450 518 36,000  Level Seattle Center
06:10PM 42.3456 -122.3686 358° North 445 512 36,000  Level Seattle Center
06:11PM 42.4667 -122.3764 357° North 436 502 36,000  Level Seattle Center
06:13PM 42.7067 -122.3919 357° North 432 497 36,000  Level Seattle Center
06:14PM 42.8225 -122.3978 358° North 444 511 36,000  Level Seattle Center
06:16PM 43.0614 -122.4128 357° North 431 496 36,000  Level Seattle Center
06:17PM 43.1775 -122.4186 358° North 422 486 36,000 -240 Level Seattle Center
06:18PM 43.2958 -122.4281 357° North 425 489 35,600 -720 Descending Seattle Center
06:19PM 43.4125 -122.4336 358° North 423 487 34,600 -840 Descending Seattle Center
06:20PM 43.5303 -122.4414 357° North 424 488 34,000 -300 Descending Seattle Center
06:21PM 43.6719 -122.4514 357° North 428 493 34,000  Level Seattle Center
06:22PM 43.7903 -122.4597 357° North 430 495 34,000  Level Seattle Center
06:23PM 43.9089 -122.4669 357° North 431 496 34,000  Level Seattle Center
06:24PM 44.0269 -122.4764 357° North 430 495 34,000  Level Seattle Center
06:25PM 44.1444 -122.4836 357° North 428 493 34,000  Level Seattle Center
06:26PM 44.2631 -122.4908 358° North 429 494 34,000  Level Seattle Center
06:27PM 44.3811 -122.5006 357° North 429 494 34,000  Level Seattle Center
06:28PM 44.5003 -122.5078 358° North 430 495 34,000  Level Seattle Center
06:29PM 44.6186 -122.5161 357° North 430 495 34,000  Level Seattle Center
06:30PM 44.7372 -122.5239 357° North 428 493 34,000  Level Seattle Center
06:32PM 44.9714 -122.5392 357° North 428 493 34,000  Level Seattle Center
06:33PM 45.1150 -122.5500 357° North 434 499 34,000  Level Seattle Center
06:35PM 45.3558 -122.5644 358° North 437 503 34,000  Level Seattle Center
06:36PM 45.4756 -122.5722 357° North 435 501 34,000  Level Seattle Center
06:37PM 45.5967 -122.5797 358° North 436 502 34,000  Level Seattle Center
06:38PM 45.7186 -122.5897 357° North 439 505 34,000 -360 Level Seattle Center
06:39PM 45.8358 -122.6117 353° North 425 489 33,300 -1,980 Descending Seattle Center
06:40PM 45.9536 -122.6414 350° North 431 496 30,100 -2,640 Descending Seattle Center
06:42PM 46.1869 -122.6983 350° North 423 487 25,300 -2,460 Descending Seattle Center
06:43PM 46.3089 -122.7181 354° North 405 466 22,800 -2,340 Descending Seattle Center
06:44PM 46.4211 -122.7267 357° North 404 465 20,600 -2,160 Descending Seattle Center
06:45PM 46.5267 -122.7306 359° North 384 442 18,500 -2,220 Descending Seattle Center
06:46PM 46.6233 -122.7344 358° North 364 419 16,400 -2,100 Descending Seattle Center
06:46PM 46.6286 -122.7328 12° North 367 422 16,400 -2,100 Level Seattle Center
06:47PM 46.7242 -122.7386 358° North 359 413 14,300 -2,100 Descending Seattle Center
06:47PM 46.7317 -122.7353 17° North 363 418 14,300 -1,980 Level Seattle Center
06:48PM 46.8308 -122.6831 20° North 378 435 12,100 -1,920 Descending Seattle Center
06:49PM 46.9017 -122.5878 43° Northeast 348 400 10,500 -1,200 Descending Seattle Center
06:51PM 46.9725 -122.3878 10° North 273 314 8,700 -900 Descending Seattle Center
06:51PM 46.9736 -122.3794 79° East 281 323 8,700 -1,020 Level Seattle Center
06:52PM 46.9864 -122.3022 76° East 253 291 7,800 -1,020 Descending Seattle Center
06:52PM 46.9981 -122.2861 43° Northeast 261 300 7,700 -840 Descending Seattle Center
06:53PM 47.0550 -122.3103 344° North 242 278 6,900 -720 Descending Seattle Center
06:53PM 47.0608 -122.3136 339° North 250 288 7,000 -900 Climbing Seattle Center
06:54PM 47.1183 -122.3147 359° North 226 260 6,000 -900 Descending Seattle Center
06:54PM 47.1250 -122.3139 North 233 268 6,100 -240 Climbing Seattle Center
06:55PM 47.1822 -122.3122 North 226 260 5,800 -300 Descending Seattle Center
06:55PM 47.1869 -122.3131 353° North 223 257 5,800 -1,440 Level Seattle Center
06:56PM 47.2450 -122.3125 360° North 213 245 4,300 -1,380 Descending Seattle Center
06:57PM 47.3003 -122.3128 360° North 199 229 3,200 -1,140 Descending Seattle Center
06:57PM 47.3039 -122.3119 North 191 220 3,200 -1,020 Level Seattle Center
06:58PM 47.3422 -122.3125 359° North 178 205 2,300 -1,020 Descending Seattle Center
06:58PM 47.3528 -122.3119 North 179 206 2,200 -780 Descending Seattle Center
06:59PM 47.3914 -122.3119 360° North 146 168 1,400 -780 Descending Seattle Center
07:00PM 47.4297 -122.3114 North 139 160 700 -780 Descending Seattle Center
07:00PM 47.4294 -122.3136 260° West 136 157 600 -240 Descending Seattle Center
07:01PM 47.4619 -122.3114 North 139 160 500 -120 Descending Seattle Center
07:03PM 47.4499 -122.3118 132° Southeast  Level Estimated